This is the latest recevied weather packets stored in our database for station/object HS2LXA-WX. If no packets are shown the sender has not sent any weather packets the latest 10 day(s).
| Time | Temp. | Humidity | Pressure | Rain* | Wind** | Luminosity | Snow |
|---|---|---|---|---|---|---|---|
| 1777736186 | 32.22° C | 68% | 1013.1 hPa | 0 mm | - | - | - |
| 1777735331 | 32.22° C | 68% | 1013.1 hPa | 0 mm | - | - | - |
| 1777734732 | 32.78° C | 68% | 1013.2 hPa | 0 mm | - | - | - |
| 1777733362 | 32.78° C | 68% | 1013.1 hPa | 0 mm | - | - | - |
| 1777732764 | 32.78° C | 67% | 1013.2 hPa | 0 mm | - | - | - |
| 1777732160 | 32.22° C | 69% | 1013.1 hPa | 0 mm | - | - | - |
| 1777731559 | 32.78° C | 67% | 1013.2 hPa | 0 mm | - | - | - |
| 1777730959 | 32.78° C | 66% | 1013.1 hPa | 0 mm | - | - | - |
| 1777730359 | 32.78° C | 64% | 1013.1 hPa | 0 mm | - | - | - |
| 1777729756 | 32.78° C | 65% | 1013.1 hPa | 0 mm | - | - | - |
| 1777729154 | 33.33° C | 64% | 1013.1 hPa | 0 mm | - | - | - |
| 1777728552 | 32.78° C | 65% | 1013.1 hPa | 0 mm | - | - | - |
| 1777727953 | 32.78° C | 66% | 1013.2 hPa | 0 mm | - | - | - |
| 1777727352 | 33.33° C | 63% | 1013.1 hPa | 0 mm | - | - | - |
| 1777726751 | 32.78° C | 64% | 1013.2 hPa | 0 mm | - | - | - |
| 1777726152 | 32.78° C | 63% | 1013.1 hPa | 0 mm | - | - | - |
| 1777725548 | 33.33° C | 62% | 1013.2 hPa | 0 mm | - | - | - |
| 1777724949 | 33.33° C | 62% | 1013.1 hPa | 0 mm | - | - | - |
| 1777724349 | 33.33° C | 62% | 1013.2 hPa | 0 mm | - | - | - |
| 1777723478 | 33.33° C | 62% | 1013.1 hPa | 0 mm | - | - | - |
| 1777722876 | 33.89° C | 62% | 1013.2 hPa | 0 mm | - | - | - |
| 1777722273 | 33.33° C | 63% | 1013.2 hPa | 0 mm | - | - | - |
| 1777721557 | 33.33° C | 63% | 1013.2 hPa | 0 mm | - | - | - |
| 1777720954 | 34.44° C | 59% | 1013.2 hPa | 0 mm | - | - | - |
| 1777720288 | 34.44° C | 60% | 1013.2 hPa | 0 mm | - | - | - |
* Rain latest hour (hover to see other rain measurements)
** Current wind speed in m/s (hover to see current wind gust speed)